createdAt,value
2018-06-07T00:00:22.516Z,15.6
2018-06-07T00:01:22.450Z,15.6
2018-06-07T00:02:23.420Z,15.7
2018-06-07T00:03:22.176Z,15.7
2018-06-07T00:04:22.204Z,15.6
2018-06-07T00:05:22.146Z,15.6
2018-06-07T00:06:22.188Z,15.6
2018-06-07T00:07:22.161Z,15.6
2018-06-07T00:08:22.198Z,15.6
2018-06-07T00:09:22.491Z,15.6
2018-06-07T00:10:22.147Z,15.4
2018-06-07T00:11:22.198Z,15.4
2018-06-07T00:12:22.143Z,15.4
2018-06-07T00:13:22.485Z,15.4
2018-06-07T00:14:22.173Z,15.4
2018-06-07T00:15:22.259Z,15.4
2018-06-07T00:16:22.177Z,15.4
2018-06-07T00:17:22.486Z,15.0
2018-06-07T00:18:22.489Z,15.0
2018-06-07T00:19:22.202Z,15.0
2018-06-07T00:20:22.217Z,15.0
2018-06-07T00:21:22.246Z,15.0
2018-06-07T00:22:22.427Z,14.8
2018-06-07T00:23:22.226Z,14.8
2018-06-07T00:24:22.161Z,14.8
2018-06-07T00:25:22.216Z,14.9
2018-06-07T00:26:22.533Z,14.9
2018-06-07T00:27:22.188Z,15.0
2018-06-07T00:28:22.496Z,15.0
2018-06-07T00:29:22.447Z,15.0
2018-06-07T00:30:22.199Z,15.4
2018-06-07T00:31:22.224Z,15.4
2018-06-07T00:32:22.241Z,15.5
2018-06-07T00:33:22.196Z,15.5
2018-06-07T00:34:22.489Z,15.5
2018-06-07T00:35:22.197Z,15.4
2018-06-07T00:36:22.236Z,15.4
2018-06-07T00:37:22.177Z,15.4
2018-06-07T00:38:22.526Z,15.6
2018-06-07T00:39:22.307Z,15.6
2018-06-07T00:40:22.206Z,15.6
2018-06-07T00:41:22.538Z,15.6
2018-06-07T00:42:22.230Z,15.6
2018-06-07T00:43:22.492Z,15.5
2018-06-07T00:44:22.191Z,15.5
2018-06-07T00:45:22.496Z,15.2
2018-06-07T00:46:22.271Z,15.2
2018-06-07T00:47:22.246Z,15.2
2018-06-07T00:48:22.495Z,15.0
2018-06-07T00:49:22.267Z,15.0
2018-06-07T00:50:22.245Z,15.1
2018-06-07T00:51:22.204Z,15.1
2018-06-07T00:52:22.313Z,15.1
2018-06-07T00:53:22.250Z,15.2
2018-06-07T00:54:22.301Z,15.2
2018-06-07T00:55:22.215Z,15.2
2018-06-07T00:56:22.258Z,15.2
2018-06-07T00:57:22.253Z,15.2
2018-06-07T00:58:22.531Z,14.8
2018-06-07T00:59:22.273Z,14.8
2018-06-07T01:00:22.278Z,14.9
2018-06-07T01:01:22.252Z,14.9
2018-06-07T01:02:22.289Z,14.9
2018-06-07T01:03:22.246Z,15.0
2018-06-07T01:04:22.255Z,15.0
2018-06-07T01:05:22.261Z,15.0
2018-06-07T01:06:22.248Z,15.0
2018-06-07T01:07:22.285Z,15.0
2018-06-07T01:08:22.291Z,14.9
2018-06-07T01:09:22.278Z,14.9
2018-06-07T01:10:22.584Z,14.9
2018-06-07T01:11:22.264Z,14.9
2018-06-07T01:12:22.260Z,14.9
2018-06-07T01:13:22.304Z,14.8
2018-06-07T01:14:22.257Z,14.8
2018-06-07T01:15:22.297Z,14.8
2018-06-07T01:16:22.336Z,14.7
2018-06-07T01:17:22.323Z,14.7
2018-06-07T01:18:22.273Z,14.5
2018-06-07T01:19:22.309Z,14.5
2018-06-07T01:20:22.265Z,14.5
2018-06-07T01:21:22.571Z,14.4
2018-06-07T01:22:22.345Z,14.4
2018-06-07T01:23:22.608Z,14.4
2018-06-07T01:24:22.292Z,14.4
2018-06-07T01:25:22.589Z,14.4
2018-06-07T01:26:22.295Z,14.5
2018-06-07T01:27:22.313Z,14.5
2018-06-07T01:28:22.600Z,14.7
2018-06-07T01:29:22.343Z,14.7
2018-06-07T01:30:22.317Z,14.7
2018-06-07T01:31:22.340Z,14.9
2018-06-07T01:32:22.307Z,14.9
2018-06-07T01:33:22.657Z,14.9
2018-06-07T01:34:22.310Z,14.9
2018-06-07T01:35:22.596Z,14.9
2018-06-07T01:36:22.790Z,14.9
2018-06-07T01:37:22.328Z,14.9
2018-06-07T01:38:22.366Z,14.9
2018-06-07T01:39:22.364Z,15.1
2018-06-07T01:40:22.334Z,15.1
2018-06-07T01:41:22.325Z,15.1
2018-06-07T01:42:22.331Z,15.1
2018-06-07T01:43:22.328Z,15.1
2018-06-07T01:44:22.341Z,15.0
2018-06-07T01:45:22.336Z,15.0
2018-06-07T01:46:22.372Z,15.1
2018-06-07T01:47:22.390Z,15.1
2018-06-07T01:48:22.345Z,15.1
2018-06-07T01:49:22.375Z,15.1
2018-06-07T01:50:22.383Z,15.1
2018-06-07T01:51:22.631Z,15.2
2018-06-07T01:52:22.372Z,15.2
2018-06-07T01:53:22.416Z,15.2
2018-06-07T01:54:22.403Z,15.3
2018-06-07T01:55:22.651Z,15.3
2018-06-07T01:56:22.376Z,15.2
2018-06-07T01:57:22.367Z,15.2
2018-06-07T01:58:22.407Z,15.2
2018-06-07T01:59:22.357Z,15.1
2018-06-07T02:00:22.385Z,15.1
2018-06-07T02:01:22.393Z,15.0
2018-06-07T02:02:22.666Z,15.0
2018-06-07T02:03:22.405Z,15.0
2018-06-07T02:04:22.434Z,14.9
2018-06-07T02:05:22.678Z,14.9
2018-06-07T02:06:22.914Z,14.9
2018-06-07T02:07:22.357Z,14.9
2018-06-07T02:08:22.357Z,14.9
2018-06-07T02:09:22.442Z,14.9
2018-06-07T02:10:22.394Z,14.9
2018-06-07T02:11:22.691Z,14.9
2018-06-07T02:12:22.415Z,14.8
2018-06-07T02:13:22.402Z,14.8
2018-06-07T02:14:22.431Z,14.8
2018-06-07T02:15:22.396Z,14.8
2018-06-07T02:16:22.392Z,14.8
2018-06-07T02:17:22.679Z,14.8
2018-06-07T02:18:22.717Z,14.8
2018-06-07T02:19:22.433Z,14.9
2018-06-07T02:20:22.404Z,14.9
2018-06-07T02:21:22.402Z,14.9
2018-06-07T02:22:22.681Z,15.0
2018-06-07T02:23:22.411Z,15.0
2018-06-07T02:24:22.425Z,15.1
2018-06-07T02:25:22.423Z,15.1
2018-06-07T02:26:22.451Z,15.1
2018-06-07T02:27:22.440Z,15.2
2018-06-07T02:28:22.411Z,15.2
2018-06-07T02:29:22.430Z,15.1
2018-06-07T02:30:22.489Z,15.1
2018-06-07T02:31:22.492Z,15.1
2018-06-07T02:32:22.473Z,15.2
2018-06-07T02:33:22.741Z,15.2
2018-06-07T02:34:22.700Z,15.2
2018-06-07T02:35:22.474Z,15.2
2018-06-07T02:36:22.434Z,15.2
2018-06-07T02:37:22.440Z,15.3
2018-06-07T02:38:22.758Z,15.3
2018-06-07T02:39:22.730Z,15.3
2018-06-07T02:40:22.493Z,15.4
2018-06-07T02:41:22.493Z,15.4
2018-06-07T02:42:22.466Z,15.2
2018-06-07T02:43:22.530Z,15.2
2018-06-07T02:44:22.460Z,15.2
2018-06-07T02:45:22.744Z,15.2
2018-06-07T02:46:22.478Z,15.2
2018-06-07T02:47:22.438Z,15.1
2018-06-07T02:48:23.148Z,15.1
2018-06-07T02:49:22.425Z,15.1
2018-06-07T02:50:22.501Z,15.3
2018-06-07T02:51:22.481Z,15.3
2018-06-07T02:52:22.808Z,15.2
2018-06-07T02:53:22.464Z,15.2
2018-06-07T02:54:22.505Z,15.2
2018-06-07T02:55:22.491Z,15.2
2018-06-07T02:56:22.755Z,15.2
2018-06-07T02:57:22.758Z,15.2
2018-06-07T02:58:22.457Z,15.2
2018-06-07T02:59:22.750Z,15.2
2018-06-07T03:00:22.763Z,15.3
2018-06-07T03:01:22.561Z,15.3
2018-06-07T03:02:22.488Z,15.4
2018-06-07T03:03:22.513Z,15.4
2018-06-07T03:04:22.756Z,15.4
2018-06-07T03:05:22.493Z,15.6
2018-06-07T03:06:22.492Z,15.6
2018-06-07T03:07:22.475Z,15.6
2018-06-07T03:08:22.491Z,15.8
2018-06-07T03:09:22.777Z,15.8
2018-06-07T03:10:22.766Z,15.9
2018-06-07T03:11:22.509Z,15.9
2018-06-07T03:12:22.449Z,15.9
2018-06-07T03:13:22.505Z,15.9
2018-06-07T03:14:22.801Z,15.9
2018-06-07T03:15:22.539Z,15.9
2018-06-07T03:16:22.541Z,15.9
2018-06-07T03:17:22.521Z,15.9
2018-06-07T03:18:22.605Z,16.0
2018-06-07T03:19:22.507Z,16.0
2018-06-07T03:20:22.674Z,15.9
2018-06-07T03:21:22.545Z,15.9
2018-06-07T03:22:22.525Z,15.9
2018-06-07T03:23:22.531Z,16.0
2018-06-07T03:24:22.757Z,16.0
2018-06-07T03:25:22.842Z,16.0
2018-06-07T03:26:22.533Z,16.0
2018-06-07T03:27:22.518Z,16.0
2018-06-07T03:28:22.535Z,16.1
2018-06-07T03:29:22.545Z,16.1
2018-06-07T03:30:22.572Z,16.0
2018-06-07T03:31:22.524Z,16.0
2018-06-07T03:32:22.791Z,16.0
2018-06-07T03:33:22.809Z,16.0
2018-06-07T03:34:22.540Z,16.0
2018-06-07T03:35:22.538Z,16.1
2018-06-07T03:36:23.497Z,16.1
2018-06-07T03:37:22.534Z,16.1
2018-06-07T03:38:22.603Z,16.1
2018-06-07T03:39:22.862Z,16.1
2018-06-07T03:40:22.549Z,16.1
2018-06-07T03:41:22.804Z,16.2
2018-06-07T03:42:22.872Z,16.2
2018-06-07T03:43:22.600Z,16.3
2018-06-07T03:44:22.558Z,16.3
2018-06-07T03:45:22.572Z,16.3
2018-06-07T03:46:22.609Z,16.2
2018-06-07T03:47:22.532Z,16.2
2018-06-07T03:48:22.914Z,16.1
2018-06-07T03:49:22.563Z,16.1
2018-06-07T03:50:22.600Z,16.1
2018-06-07T03:51:22.582Z,16.0
2018-06-07T03:52:22.573Z,16.0
2018-06-07T03:53:22.577Z,16.0
2018-06-07T03:54:22.839Z,16.0
2018-06-07T03:55:22.588Z,16.0
2018-06-07T03:56:22.890Z,16.0
2018-06-07T03:57:22.595Z,16.0
2018-06-07T03:58:22.606Z,16.0
2018-06-07T03:59:22.873Z,16.0
2018-06-07T04:00:22.631Z,16.0
2018-06-07T04:01:22.869Z,16.0
2018-06-07T04:02:22.639Z,16.0
2018-06-07T04:03:22.594Z,16.0
2018-06-07T04:04:22.873Z,16.0
2018-06-07T04:05:22.628Z,16.0
2018-06-07T04:06:22.925Z,16.0
2018-06-07T04:07:22.628Z,16.0
2018-06-07T04:08:22.545Z,15.9
2018-06-07T04:09:22.870Z,15.9
2018-06-07T04:10:22.648Z,15.9
2018-06-07T04:11:22.593Z,15.9
2018-06-07T04:12:22.864Z,15.9
2018-06-07T04:13:22.595Z,15.9
2018-06-07T04:14:22.854Z,15.9
2018-06-07T04:15:22.919Z,15.9
2018-06-07T04:16:22.630Z,15.9
2018-06-07T04:17:22.635Z,15.9
2018-06-07T04:18:22.652Z,15.9
2018-06-07T04:19:22.634Z,15.9
2018-06-07T04:20:22.629Z,15.9
2018-06-07T04:21:22.606Z,16.0
2018-06-07T04:22:22.655Z,16.0
2018-06-07T04:23:22.902Z,16.0
2018-06-07T04:24:22.645Z,16.1
2018-06-07T04:25:22.618Z,16.1
2018-06-07T04:26:22.959Z,16.1
2018-06-07T04:27:22.959Z,16.1
2018-06-07T04:28:22.648Z,16.1
2018-06-07T04:29:22.612Z,16.2
2018-06-07T04:30:22.655Z,16.2
2018-06-07T04:31:22.620Z,16.3
2018-06-07T04:32:22.654Z,16.3
2018-06-07T04:33:22.659Z,16.3
2018-06-07T04:34:22.739Z,16.4
2018-06-07T04:35:22.655Z,16.4
2018-06-07T04:36:22.713Z,16.5
2018-06-07T04:37:22.685Z,16.5
2018-06-07T04:38:22.923Z,16.5
2018-06-07T04:39:22.713Z,16.7
2018-06-07T04:40:22.660Z,16.7
2018-06-07T04:41:22.610Z,16.7
2018-06-07T04:42:22.667Z,16.8
2018-06-07T04:43:22.729Z,16.8
2018-06-07T04:44:22.669Z,17.1
2018-06-07T04:45:22.953Z,17.1
2018-06-07T04:46:22.657Z,17.1
2018-06-07T04:47:22.996Z,17.2
2018-06-07T04:48:22.684Z,17.2
2018-06-07T04:49:22.732Z,17.4
2018-06-07T04:50:22.717Z,17.4
2018-06-07T04:51:22.707Z,17.4
2018-06-07T04:52:22.690Z,17.5
2018-06-07T04:53:22.942Z,17.5
2018-06-07T04:54:22.668Z,17.6
2018-06-07T04:55:22.767Z,17.6
2018-06-07T04:56:22.725Z,17.6
2018-06-07T04:57:22.942Z,17.7
2018-06-07T04:58:22.696Z,17.7
2018-06-07T04:59:22.679Z,17.7
2018-06-07T05:00:22.673Z,17.7
2018-06-07T05:01:23.026Z,17.7
2018-06-07T05:02:23.011Z,17.8
2018-06-07T05:03:22.731Z,17.8
2018-06-07T05:04:22.738Z,17.7
2018-06-07T05:05:22.676Z,17.7
2018-06-07T05:06:22.686Z,17.7
2018-06-07T05:07:22.723Z,17.5
2018-06-07T05:08:22.790Z,17.5
2018-06-07T05:09:22.731Z,17.5
2018-06-07T05:10:22.715Z,17.6
2018-06-07T05:11:22.779Z,17.6
2018-06-07T05:12:22.783Z,17.6
2018-06-07T05:13:23.064Z,17.6
2018-06-07T05:14:23.024Z,17.6
2018-06-07T05:15:22.730Z,17.6
2018-06-07T05:16:23.020Z,17.6
2018-06-07T05:17:22.783Z,17.6
2018-06-07T05:18:23.010Z,17.6
2018-06-07T05:19:22.765Z,17.6
2018-06-07T05:20:22.753Z,17.7
2018-06-07T05:21:22.722Z,17.7
2018-06-07T05:22:22.736Z,17.8
2018-06-07T05:23:22.753Z,17.8
2018-06-07T05:24:22.743Z,17.8
2018-06-07T05:25:22.705Z,17.8
2018-06-07T05:26:22.749Z,17.8
2018-06-07T05:27:23.011Z,17.9
2018-06-07T05:28:22.797Z,17.9
2018-06-07T05:29:22.783Z,17.9
2018-06-07T05:30:23.064Z,18.0
2018-06-07T05:31:22.744Z,18.0
2018-06-07T05:32:22.745Z,18.2
2018-06-07T05:33:22.818Z,18.2
2018-06-07T05:34:22.774Z,18.2
2018-06-07T05:35:23.011Z,18.2
2018-06-07T05:36:22.891Z,18.2
2018-06-07T05:37:22.800Z,18.3
2018-06-07T05:38:23.035Z,18.3
2018-06-07T05:39:23.066Z,18.3
2018-06-07T05:40:22.759Z,18.3
2018-06-07T05:41:22.785Z,18.3
2018-06-07T05:42:23.081Z,18.3
2018-06-07T05:43:22.812Z,18.7
2018-06-07T05:44:22.839Z,18.7
2018-06-07T05:45:22.767Z,18.8
2018-06-07T05:46:23.073Z,18.8
2018-06-07T05:47:22.838Z,18.8
2018-06-07T05:48:22.895Z,18.8
2018-06-07T05:49:22.810Z,18.8
2018-06-07T05:50:22.818Z,19.0
2018-06-07T05:51:23.028Z,19.0
2018-06-07T05:52:23.072Z,19.0
2018-06-07T05:53:23.108Z,19.0
2018-06-07T05:54:22.797Z,19.0
2018-06-07T05:55:23.095Z,19.1
2018-06-07T05:56:22.830Z,19.1
2018-06-07T05:57:22.826Z,19.1
2018-06-07T05:58:23.066Z,19.2
2018-06-07T05:59:23.431Z,19.2
2018-06-07T06:00:22.783Z,19.2
2018-06-07T06:01:23.090Z,19.2
2018-06-07T06:02:22.782Z,19.2
2018-06-07T06:03:22.864Z,19.3
2018-06-07T06:04:23.151Z,19.3
2018-06-07T06:05:22.837Z,19.4
2018-06-07T06:06:22.794Z,19.4
2018-06-07T06:07:22.832Z,19.4
2018-06-07T06:08:22.827Z,19.5
2018-06-07T06:09:22.983Z,19.5
2018-06-07T06:10:22.904Z,19.5
2018-06-07T06:11:22.871Z,19.6
2018-06-07T06:12:23.005Z,19.6
2018-06-07T06:13:22.844Z,19.7
2018-06-07T06:14:22.903Z,19.7
2018-06-07T06:15:22.847Z,19.7
2018-06-07T06:16:22.825Z,19.8
2018-06-07T06:17:22.857Z,19.8
2018-06-07T06:18:22.853Z,19.8
2018-06-07T06:19:22.834Z,19.8
2018-06-07T06:20:22.881Z,19.8
2018-06-07T06:21:22.985Z,19.8
2018-06-07T06:22:22.883Z,19.8
2018-06-07T06:23:22.836Z,20.0
2018-06-07T06:24:22.838Z,20.0
2018-06-07T06:25:23.125Z,20.0
2018-06-07T06:26:23.148Z,20.0
2018-06-07T06:27:22.893Z,20.0
2018-06-07T06:28:22.900Z,20.2
2018-06-07T06:29:22.916Z,20.2
2018-06-07T06:30:22.890Z,20.2
2018-06-07T06:31:23.132Z,20.3
2018-06-07T06:32:23.352Z,20.3
2018-06-07T06:33:22.961Z,20.4
2018-06-07T06:34:22.948Z,20.4
2018-06-07T06:35:22.854Z,20.4
2018-06-07T06:36:22.937Z,20.3
2018-06-07T06:37:23.242Z,20.3
2018-06-07T06:38:22.922Z,20.5
2018-06-07T06:39:22.914Z,20.5
2018-06-07T06:40:22.868Z,20.5
2018-06-07T06:41:23.194Z,20.7
2018-06-07T06:42:23.205Z,20.7
2018-06-07T06:43:23.164Z,20.7
2018-06-07T06:44:23.440Z,20.9
2018-06-07T06:45:23.179Z,20.9
2018-06-07T06:46:22.923Z,21.1
2018-06-07T06:47:22.917Z,21.1
2018-06-07T06:48:22.900Z,21.1
2018-06-07T06:49:22.984Z,21.2
2018-06-07T06:50:22.907Z,21.2
2018-06-07T06:51:22.924Z,21.4
2018-06-07T06:52:23.167Z,21.4
2018-06-07T06:53:22.892Z,21.4
2018-06-07T06:54:22.940Z,21.7
2018-06-07T06:55:23.215Z,21.7
2018-06-07T06:56:22.928Z,22.2
2018-06-07T06:57:23.224Z,22.2
2018-06-07T06:58:22.911Z,22.2
2018-06-07T06:59:22.906Z,22.6
2018-06-07T07:00:23.275Z,22.6
2018-06-07T07:01:23.203Z,22.6
2018-06-07T07:02:23.075Z,22.6
2018-06-07T07:03:23.298Z,22.6
2018-06-07T07:04:23.006Z,23.8
2018-06-07T07:05:22.979Z,23.8
2018-06-07T07:06:22.949Z,24.0
2018-06-07T07:07:22.993Z,24.0
2018-06-07T07:08:23.265Z,24.0
2018-06-07T07:09:23.268Z,24.0
2018-06-07T07:10:22.928Z,24.0
2018-06-07T07:11:22.977Z,24.0
2018-06-07T07:12:22.953Z,24.2
2018-06-07T07:13:23.227Z,24.2
2018-06-07T07:14:22.958Z,23.9
2018-06-07T07:15:22.983Z,23.9
2018-06-07T07:16:22.980Z,23.9
2018-06-07T07:17:22.951Z,24.8
2018-06-07T07:18:23.260Z,24.8
2018-06-07T07:19:23.224Z,25.4
2018-06-07T07:20:23.242Z,25.4
2018-06-07T07:21:23.267Z,25.4
2018-06-07T07:22:22.947Z,25.3
2018-06-07T07:23:23.021Z,25.3
2018-06-07T07:24:22.937Z,25.0
2018-06-07T07:25:22.936Z,25.0
2018-06-07T07:26:22.972Z,25.0
2018-06-07T07:27:23.205Z,24.4
2018-06-07T07:28:23.000Z,24.4
2018-06-07T07:29:23.243Z,23.2
2018-06-07T07:30:22.978Z,23.2
2018-06-07T07:31:22.991Z,23.2
2018-06-07T07:32:22.991Z,22.5
2018-06-07T07:33:23.033Z,22.5
2018-06-07T07:34:23.017Z,22.8
2018-06-07T07:35:23.038Z,22.8
2018-06-07T07:36:23.053Z,22.8
2018-06-07T07:37:23.325Z,22.9
2018-06-07T07:38:23.011Z,22.9
2018-06-07T07:39:23.107Z,22.9
2018-06-07T07:40:23.012Z,22.9
2018-06-07T07:41:22.991Z,22.9
2018-06-07T07:42:22.986Z,22.9
2018-06-07T07:43:23.045Z,22.9
2018-06-07T07:44:23.236Z,22.9
2018-06-07T07:45:23.058Z,22.9
2018-06-07T07:46:23.044Z,22.9
2018-06-07T07:47:22.987Z,25.2
2018-06-07T07:48:23.253Z,25.2
2018-06-07T07:49:23.000Z,25.2
2018-06-07T07:50:23.015Z,26.0
2018-06-07T07:51:23.119Z,26.0
2018-06-07T07:52:23.020Z,26.5
2018-06-07T07:53:23.050Z,26.5
2018-06-07T07:54:23.021Z,26.5
2018-06-07T07:55:23.262Z,25.5
2018-06-07T07:56:23.027Z,25.5
2018-06-07T07:57:23.039Z,24.8
2018-06-07T07:58:23.000Z,24.8
2018-06-07T07:59:23.302Z,24.8
2018-06-07T08:00:23.346Z,25.0
2018-06-07T08:01:23.037Z,25.0
2018-06-07T08:02:23.036Z,24.8
2018-06-07T08:03:23.067Z,24.8
2018-06-07T08:04:23.014Z,24.8
2018-06-07T08:05:23.344Z,25.2
2018-06-07T08:06:23.346Z,25.2
2018-06-07T08:07:23.026Z,25.6
2018-06-07T08:08:23.004Z,25.6
2018-06-07T08:09:23.045Z,25.6
2018-06-07T08:10:23.042Z,25.7
2018-06-07T08:11:23.308Z,25.7
2018-06-07T08:12:23.059Z,25.7
2018-06-07T08:13:23.059Z,26.4
2018-06-07T08:14:23.062Z,26.4
2018-06-07T08:15:23.389Z,26.1
2018-06-07T08:16:23.424Z,26.1
2018-06-07T08:17:23.071Z,26.1
2018-06-07T08:18:23.082Z,25.9
2018-06-07T08:19:23.059Z,25.9
2018-06-07T08:20:23.078Z,26.9
2018-06-07T08:21:23.062Z,26.9
2018-06-07T08:22:23.049Z,26.9
2018-06-07T08:23:23.099Z,26.9
2018-06-07T08:24:23.066Z,26.9
2018-06-07T08:25:23.065Z,26.2
2018-06-07T08:26:23.076Z,26.2
2018-06-07T08:27:23.101Z,26.2
2018-06-07T08:28:23.065Z,25.9
2018-06-07T08:29:23.358Z,25.9
2018-06-07T08:30:23.356Z,25.8
2018-06-07T08:31:23.071Z,25.8
2018-06-07T08:32:23.090Z,25.8
2018-06-07T08:33:23.103Z,25.6
2018-06-07T08:34:23.075Z,25.6
2018-06-07T08:35:23.413Z,25.7
2018-06-07T08:36:23.175Z,25.7
2018-06-07T08:37:23.110Z,25.7
2018-06-07T08:38:23.130Z,25.3
2018-06-07T08:39:23.143Z,25.3
2018-06-07T08:40:23.085Z,25.6
2018-06-07T08:41:23.659Z,25.6
2018-06-07T08:42:23.121Z,25.6
2018-06-07T08:43:23.370Z,25.6
2018-06-07T08:44:23.079Z,25.6
2018-06-07T08:45:23.095Z,25.6
2018-06-07T08:46:23.162Z,26.9
2018-06-07T08:47:23.121Z,26.9
2018-06-07T08:48:23.098Z,27.2
2018-06-07T08:49:23.404Z,27.2
2018-06-07T08:50:23.094Z,27.2
2018-06-07T08:51:23.294Z,27.3
2018-06-07T08:52:23.139Z,27.3
2018-06-07T08:53:23.295Z,27.4
2018-06-07T08:54:23.386Z,27.4
2018-06-07T08:55:23.373Z,27.4
2018-06-07T08:56:23.136Z,27.3
2018-06-07T08:57:23.099Z,27.3
2018-06-07T08:58:23.115Z,27.7
2018-06-07T08:59:23.150Z,27.7
2018-06-07T09:00:23.292Z,27.7
2018-06-07T09:01:23.426Z,27.3
2018-06-07T09:02:23.164Z,27.3
2018-06-07T09:03:23.161Z,27.3
2018-06-07T09:04:23.152Z,27.3
2018-06-07T09:05:23.134Z,27.3
2018-06-07T09:06:23.207Z,26.0
2018-06-07T09:07:23.166Z,26.0
2018-06-07T09:08:23.134Z,26.4
2018-06-07T09:09:23.240Z,26.4
2018-06-07T09:10:23.191Z,26.4
2018-06-07T09:11:23.170Z,26.8
2018-06-07T09:12:23.190Z,26.8
2018-06-07T09:13:23.521Z,26.8
2018-06-07T09:14:23.186Z,27.0
2018-06-07T09:15:23.202Z,27.0
2018-06-07T09:16:23.171Z,27.6
2018-06-07T09:17:23.188Z,27.6
2018-06-07T09:18:23.440Z,27.6
2018-06-07T09:19:23.227Z,27.5
2018-06-07T09:20:23.175Z,27.5
2018-06-07T09:21:23.152Z,27.6
2018-06-07T09:22:23.158Z,27.6
2018-06-07T09:23:24.130Z,27.6
2018-06-07T09:24:23.165Z,28.2
2018-06-07T09:25:23.177Z,28.2
2018-06-07T09:26:23.258Z,28.5
2018-06-07T09:27:23.228Z,28.5
2018-06-07T09:28:23.236Z,28.5
2018-06-07T09:29:23.475Z,27.6
2018-06-07T09:30:23.260Z,27.6
2018-06-07T09:31:23.519Z,28.1
2018-06-07T09:32:23.234Z,28.1
2018-06-07T09:33:23.452Z,28.1
2018-06-07T09:34:23.569Z,28.6
2018-06-07T09:35:23.533Z,28.6
2018-06-07T09:36:23.255Z,28.6
2018-06-07T09:37:23.302Z,28.6
2018-06-07T09:38:23.197Z,28.6
2018-06-07T09:39:23.459Z,29.0
2018-06-07T09:40:23.245Z,29.0
2018-06-07T09:41:23.214Z,29.0
2018-06-07T09:42:23.215Z,29.0
2018-06-07T09:43:23.288Z,29.0
2018-06-07T09:44:23.278Z,29.0
2018-06-07T09:45:23.286Z,29.0
2018-06-07T09:46:23.282Z,29.0
2018-06-07T09:47:23.300Z,28.2
2018-06-07T09:48:23.232Z,28.2
2018-06-07T09:49:23.213Z,28.8
2018-06-07T09:50:23.229Z,28.8
2018-06-07T09:51:23.239Z,28.8
2018-06-07T09:52:23.254Z,29.1
2018-06-07T09:53:23.242Z,29.1
2018-06-07T09:54:23.261Z,29.3
2018-06-07T09:55:23.238Z,29.3
2018-06-07T09:56:23.226Z,29.3
2018-06-07T09:57:23.286Z,29.8
2018-06-07T09:58:23.341Z,29.8
2018-06-07T09:59:23.243Z,29.8
2018-06-07T10:00:23.598Z,29.8
2018-06-07T10:01:23.267Z,29.8
2018-06-07T10:02:23.567Z,30.0
2018-06-07T10:03:23.296Z,30.0
2018-06-07T10:04:23.546Z,30.1
2018-06-07T10:05:23.593Z,30.1
2018-06-07T10:06:23.286Z,30.1
2018-06-07T10:07:23.389Z,29.9
2018-06-07T10:08:23.254Z,29.9
2018-06-07T10:09:23.249Z,30.1
2018-06-07T10:10:23.541Z,30.1
2018-06-07T10:11:23.273Z,30.1
2018-06-07T10:12:23.581Z,27.8
2018-06-07T10:13:23.274Z,27.8
2018-06-07T10:14:23.603Z,27.8
2018-06-07T10:15:23.638Z,27.8
2018-06-07T10:16:23.364Z,27.8
2018-06-07T10:17:23.347Z,27.6
2018-06-07T10:18:23.355Z,27.6
2018-06-07T10:19:23.607Z,27.6
2018-06-07T10:20:23.598Z,27.1
2018-06-07T10:21:23.345Z,27.1
2018-06-07T10:22:23.341Z,26.4
2018-06-07T10:23:23.625Z,26.4
2018-06-07T10:24:23.314Z,26.4
2018-06-07T10:25:24.322Z,26.4
2018-06-07T10:26:23.582Z,26.4
2018-06-07T10:27:23.637Z,26.5
2018-06-07T10:28:23.328Z,26.5
2018-06-07T10:29:23.439Z,26.5
2018-06-07T10:30:23.325Z,26.5
2018-06-07T10:31:23.389Z,26.5
2018-06-07T10:32:23.627Z,26.4
2018-06-07T10:33:23.353Z,26.4
2018-06-07T10:34:23.267Z,26.4
2018-06-07T10:35:23.345Z,25.8
2018-06-07T10:36:23.313Z,25.8
2018-06-07T10:37:23.395Z,24.9
2018-06-07T10:38:23.311Z,24.9
2018-06-07T10:39:23.363Z,24.9
2018-06-07T10:40:23.331Z,25.8
2018-06-07T10:41:23.447Z,25.8
2018-06-07T10:42:23.683Z,26.6
2018-06-07T10:43:23.997Z,26.6
2018-06-07T10:44:23.397Z,26.6
2018-06-07T10:45:23.369Z,27.3
2018-06-07T10:46:23.331Z,27.3
2018-06-07T10:47:23.402Z,27.3
2018-06-07T10:48:23.620Z,27.3
2018-06-07T10:49:23.360Z,27.3
2018-06-07T10:50:23.337Z,27.4
2018-06-07T10:51:23.407Z,27.4
2018-06-07T10:52:23.632Z,27.4
2018-06-07T10:53:23.638Z,27.6
2018-06-07T10:54:23.368Z,27.6
2018-06-07T10:55:23.466Z,28.4
2018-06-07T10:56:23.378Z,28.4
2018-06-07T10:57:24.212Z,28.4
2018-06-07T10:58:23.363Z,28.8
2018-06-07T10:59:23.392Z,28.8
2018-06-07T11:00:23.353Z,28.6
2018-06-07T11:01:24.166Z,28.6
2018-06-07T11:02:23.333Z,28.6
2018-06-07T11:03:23.409Z,28.1
2018-06-07T11:04:23.430Z,28.1
2018-06-07T11:05:23.421Z,28.1
2018-06-07T11:06:23.346Z,28.1
2018-06-07T11:07:23.698Z,28.1
2018-06-07T11:08:23.324Z,26.6
2018-06-07T11:09:23.705Z,26.6
2018-06-07T11:10:23.371Z,25.8
2018-06-07T11:11:23.680Z,25.8
2018-06-07T11:12:23.342Z,25.8
2018-06-07T11:13:23.685Z,25.9
2018-06-07T11:14:23.435Z,25.9
2018-06-07T11:15:23.479Z,25.9
2018-06-07T11:16:23.670Z,26.0
2018-06-07T11:17:23.399Z,26.0
2018-06-07T11:18:23.469Z,26.2
2018-06-07T11:19:23.479Z,26.2
2018-06-07T11:20:23.432Z,26.2
2018-06-07T11:21:23.513Z,26.0
2018-06-07T11:22:23.677Z,26.0
2018-06-07T11:23:23.436Z,27.0
2018-06-07T11:24:23.425Z,27.0
2018-06-07T11:25:23.768Z,27.0
2018-06-07T11:26:23.437Z,26.0
2018-06-07T11:27:23.390Z,26.0
2018-06-07T11:28:23.449Z,25.3
2018-06-07T11:29:23.422Z,25.3
2018-06-07T11:30:23.404Z,25.3
2018-06-07T11:31:23.469Z,25.4
2018-06-07T11:32:23.401Z,25.4
2018-06-07T11:33:23.424Z,25.9
2018-06-07T11:34:23.425Z,25.9
2018-06-07T11:35:23.510Z,25.9
2018-06-07T11:36:23.437Z,26.2
2018-06-07T11:37:23.403Z,26.2
2018-06-07T11:38:23.709Z,26.4
2018-06-07T11:39:23.416Z,26.4
2018-06-07T11:40:23.480Z,26.4
2018-06-07T11:41:23.489Z,26.4
2018-06-07T11:42:23.748Z,26.4
2018-06-07T11:43:23.462Z,25.6
2018-06-07T11:44:23.439Z,25.6
2018-06-07T11:45:23.823Z,25.6
2018-06-07T11:46:23.434Z,25.6
2018-06-07T11:47:23.459Z,25.6
2018-06-07T11:48:23.456Z,25.6
2018-06-07T11:49:23.511Z,26.2
2018-06-07T11:50:23.446Z,26.2
2018-06-07T11:51:23.523Z,26.3
2018-06-07T11:52:23.467Z,26.3
2018-06-07T11:53:23.469Z,26.3
2018-06-07T11:54:23.507Z,26.4
2018-06-07T11:55:23.517Z,26.4
2018-06-07T11:56:23.479Z,26.6
2018-06-07T11:57:23.440Z,26.6
2018-06-07T11:58:23.536Z,26.6
2018-06-07T11:59:23.485Z,26.6
2018-06-07T12:00:23.509Z,26.6
2018-06-07T12:01:23.762Z,26.4
2018-06-07T12:02:23.532Z,26.4
2018-06-07T12:03:23.491Z,26.4
2018-06-07T12:04:23.503Z,26.2
2018-06-07T12:05:23.501Z,26.2
2018-06-07T12:06:23.459Z,26.1
2018-06-07T12:07:23.495Z,26.1
2018-06-07T12:08:23.517Z,26.1
2018-06-07T12:09:23.806Z,25.8
2018-06-07T12:10:23.799Z,25.8
2018-06-07T12:11:23.784Z,24.3
2018-06-07T12:12:23.495Z,24.3
2018-06-07T12:13:23.501Z,24.3
2018-06-07T12:14:23.544Z,23.8
2018-06-07T12:15:23.525Z,23.8
2018-06-07T12:16:23.579Z,23.8
2018-06-07T12:17:23.518Z,23.4
2018-06-07T12:18:23.498Z,23.4
2018-06-07T12:19:23.803Z,23.0
2018-06-07T12:20:23.868Z,23.0
2018-06-07T12:21:23.870Z,23.0
2018-06-07T12:22:23.626Z,22.9
2018-06-07T12:23:23.771Z,22.9
2018-06-07T12:24:23.507Z,22.9
2018-06-07T12:25:23.585Z,22.9
2018-06-07T12:26:23.829Z,22.9
2018-06-07T12:27:23.798Z,22.9
2018-06-07T12:28:23.535Z,22.9
2018-06-07T12:29:23.541Z,22.9
2018-06-07T12:30:23.552Z,22.9
2018-06-07T12:31:23.554Z,22.9
2018-06-07T12:32:23.778Z,22.9
2018-06-07T12:33:23.818Z,22.9
2018-06-07T12:34:23.537Z,23.3
2018-06-07T12:35:23.620Z,23.3
2018-06-07T12:36:23.560Z,23.3
2018-06-07T12:37:23.539Z,23.5
2018-06-07T12:38:23.558Z,23.5
2018-06-07T12:39:23.567Z,23.5
2018-06-07T12:40:23.711Z,23.5
2018-06-07T12:41:23.583Z,23.5
2018-06-07T12:42:23.567Z,23.6
2018-06-07T12:43:23.559Z,23.6
2018-06-07T12:44:23.560Z,23.3
2018-06-07T12:45:23.550Z,23.3
2018-06-07T12:46:23.640Z,23.3
2018-06-07T12:47:23.561Z,23.2
2018-06-07T12:48:23.598Z,23.2
2018-06-07T12:49:23.565Z,23.2
2018-06-07T12:50:23.565Z,22.9
2018-06-07T12:51:23.594Z,22.9
2018-06-07T12:52:23.600Z,22.8
2018-06-07T12:53:23.579Z,22.8
2018-06-07T12:54:23.585Z,22.8
2018-06-07T12:55:23.558Z,22.8
2018-06-07T12:56:23.598Z,22.8
2018-06-07T12:57:23.633Z,22.3
2018-06-07T12:58:23.616Z,22.3
2018-06-07T12:59:23.923Z,22.3
2018-06-07T13:00:23.987Z,22.1
2018-06-07T13:01:23.673Z,22.1
2018-06-07T13:02:23.969Z,22.2
2018-06-07T13:03:23.729Z,22.2
2018-06-07T13:04:23.667Z,22.2
2018-06-07T13:05:24.012Z,22.0
2018-06-07T13:06:23.691Z,22.0
2018-06-07T13:07:23.917Z,22.0
2018-06-07T13:08:23.897Z,22.0
2018-06-07T13:09:23.606Z,22.0
2018-06-07T13:10:23.682Z,21.8
2018-06-07T13:11:23.957Z,21.8
2018-06-07T13:12:23.706Z,21.6
2018-06-07T13:13:23.622Z,21.6
2018-06-07T13:14:23.631Z,21.6
2018-06-07T13:15:23.617Z,21.6
2018-06-07T13:16:23.698Z,21.6
2018-06-07T13:17:23.699Z,21.6
2018-06-07T13:18:23.663Z,21.8